Time;durP1;ratioP1;P1;durP2;ratioP2;P2;SDS_P1;SDS_P2;PMS_P1;PMS_P2;Temp;Humidity;BMP_temperature;BMP_pressure;BME280_temperature;BME280_humidity;BME280_pressure;Samples;Min_cycle;Max_cycle;Signal;HPM_P1;HPM_P2
2021/05/04 00:01:31;;;;;;;17.60;15.90;;;;;;;7.28;100.00;100027.41;5013187;28;20242;-74
2021/05/04 00:03:57;;;;;;;16.63;15.13;;;;;;;7.22;100.00;100028.47;4996459;28;20220;-73
2021/05/04 00:06:25;;;;;;;17.00;15.40;;;;;;;7.22;100.00;100018.47;4980233;28;20275;-73
2021/05/04 00:08:50;;;;;;;16.80;15.20;;;;;;;7.29;100.00;100008.25;4980437;28;20577;-74
2021/05/04 00:11:16;;;;;;;16.70;15.17;;;;;;;7.27;100.00;100004.16;5013946;28;20229;-72
2021/05/04 00:13:41;;;;;;;17.13;15.27;;;;;;;7.15;100.00;99995.50;5012550;28;20193;-73
2021/05/04 00:16:07;;;;;;;15.17;13.67;;;;;;;7.22;100.00;99977.19;4964267;28;20239;-73
2021/05/04 00:18:35;;;;;;;14.57;13.30;;;;;;;7.14;100.00;99983.06;4997799;28;20558;-73
2021/05/04 00:21:03;;;;;;;13.83;12.53;;;;;;;7.09;100.00;99974.97;4980675;28;20229;-73
2021/05/04 00:23:31;;;;;;;13.37;12.10;;;;;;;7.04;100.00;99956.06;4980749;28;20197;-73
2021/05/04 00:25:57;;;;;;;13.23;12.00;;;;;;;7.12;100.00;99952.84;4987982;28;20233;-74
2021/05/04 00:28:23;;;;;;;13.90;12.60;;;;;;;7.16;100.00;99926.91;4980473;28;20674;-74
2021/05/04 00:30:48;;;;;;;11.90;10.83;;;;;;;7.11;100.00;99926.94;5012956;28;20239;-73
2021/05/04 00:33:14;;;;;;;12.33;11.10;;;;;;;7.23;100.00;99916.66;5012141;28;20215;-74
2021/05/04 00:35:39;;;;;;;11.97;10.77;;;;;;;7.20;100.00;99917.19;4996588;28;20236;-74
2021/05/04 00:38:05;;;;;;;10.90;9.90;;;;;;;7.14;100.00;99892.09;5014129;28;20192;-73
2021/05/04 00:40:33;;;;;;;9.97;9.00;;;;;;;7.15;100.00;99895.59;4996246;28;20751;-73
2021/05/04 00:42:58;;;;;;;9.50;8.60;;;;;;;7.21;100.00;99886.44;5011961;28;20655;-74
2021/05/04 00:45:24;;;;;;;9.60;8.70;;;;;;;7.13;100.00;99874.28;5013841;28;20228;-74
2021/05/04 00:47:54;;;;;;;9.27;8.27;;;;;;;7.19;100.00;99856.19;5012803;28;20217;-74
2021/05/04 00:50:20;;;;;;;8.87;7.90;;;;;;;7.12;100.00;99861.03;4981178;28;20192;-73
2021/05/04 00:52:48;;;;;;;8.30;7.60;;;;;;;7.27;100.00;99848.38;5012382;28;20173;-73
2021/05/04 00:55:14;;;;;;;8.67;7.30;;;;;;;7.12;100.00;99839.44;4996489;28;20271;-74
2021/05/04 00:57:43;;;;;;;7.53;6.83;;;;;;;7.26;100.00;99829.72;4995796;28;20332;-74
2021/05/04 01:00:11;;;;;;;9.93;7.07;;;;;;;7.29;100.00;99825.41;4980335;28;20196;-74
2021/05/04 01:02:40;;;;;;;7.03;6.40;;;;;;;7.36;100.00;99825.09;5011146;28;20223;-74
2021/05/04 01:05:09;;;;;;;7.90;7.10;;;;;;;7.40;100.00;99810.81;4996618;28;20312;-74
2021/05/04 01:07:37;;;;;;;7.53;6.67;;;;;;;7.47;100.00;99811.34;5012073;28;20263;-74
2021/05/04 01:10:07;;;;;;;6.63;6.03;;;;;;;7.46;100.00;99807.00;4996198;28;20553;-72
2021/05/04 01:12:33;;;;;;;7.50;6.63;;;;;;;7.43;100.00;99798.63;5008744;28;20299;-73
2021/05/04 01:15:01;;;;;;;6.60;6.00;;;;;;;7.60;100.00;99778.34;5000153;28;20176;-73
2021/05/04 01:17:30;;;;;;;6.83;6.20;;;;;;;7.56;100.00;99782.66;5004895;28;20698;-73
2021/05/04 01:19:56;;;;;;;7.00;6.40;;;;;;;7.40;100.00;99756.78;5029575;28;20191;-73
2021/05/04 01:22:24;;;;;;;6.87;5.50;;;;;;;7.52;100.00;99748.38;5050698;28;20957;-73
2021/05/04 01:24:52;;;;;;;6.30;5.70;;;;;;;7.51;100.00;99734.06;5032308;28;20191;-73
2021/05/04 01:27:22;;;;;;;7.00;5.83;;;;;;;7.57;100.00;99719.44;5034713;28;20293;-73
2021/05/04 01:29:48;;;;;;;6.57;5.57;;;;;;;7.64;100.00;99709.16;5052865;28;20204;-74
2021/05/04 01:32:14;;;;;;;6.10;5.50;;;;;;;7.64;100.00;99713.72;5050657;28;20223;-74
2021/05/04 01:34:41;;;;;;;7.00;5.20;;;;;;;7.59;100.00;99689.47;5053195;28;20194;-74
2021/05/04 01:37:07;;;;;;;5.93;5.10;;;;;;;7.68;100.00;99677.81;5051576;28;20318;-73
2021/05/04 01:39:49;;;;;;;7.03;5.70;;;;;;;7.71;100.00;99669.16;5035963;28;20187;-74
2021/05/04 01:42:18;;;;;;;5.40;4.90;;;;;;;7.64;100.00;99654.28;5019296;28;20381;-73
2021/05/04 01:44:47;;;;;;;4.80;4.40;;;;;;;7.59;100.00;99652.44;5000909;28;20605;-74
2021/05/04 01:47:12;;;;;;;4.80;4.13;;;;;;;7.75;100.00;99640.47;5012007;28;20221;-74
2021/05/04 01:49:38;;;;;;;4.60;4.03;;;;;;;7.82;100.00;99625.56;4979443;28;20225;-74
2021/05/04 01:52:10;;;;;;;4.57;3.93;;;;;;;7.91;100.00;99623.06;4994077;28;20606;-74
2021/05/04 01:54:35;;;;;;;4.60;4.10;;;;;;;7.87;100.00;99612.00;4979357;28;20643;-74
2021/05/04 01:57:04;;;;;;;6.63;4.50;;;;;;;7.93;100.00;99599.25;4995310;28;20315;-73
2021/05/04 01:59:32;;;;;;;4.00;3.60;;;;;;;8.08;100.00;99598.06;4996066;28;20589;-74
2021/05/04 02:01:57;;;;;;;4.73;3.87;;;;;;;8.00;100.00;99592.44;4978685;28;20229;-74
2021/05/04 02:04:26;;;;;;;4.67;3.73;;;;;;;7.99;100.00;99595.47;5012647;28;20177;-74
2021/05/04 02:06:52;;;;;;;4.40;4.00;;;;;;;8.12;100.00;99582.94;4995464;28;20240;-73
2021/05/04 02:09:19;;;;;;;4.27;3.80;;;;;;;8.11;100.00;99564.28;4980108;28;20213;-73
2021/05/04 02:11:45;;;;;;;4.10;3.80;;;;;;;8.13;100.00;99537.75;5009862;28;20239;-73
2021/05/04 02:14:13;;;;;;;4.40;4.00;;;;;;;8.19;100.00;99529.31;5011922;28;20296;-73
2021/05/04 02:16:38;;;;;;;4.23;3.67;;;;;;;8.14;100.00;99521.25;4994581;28;20290;-73
2021/05/04 02:19:04;;;;;;;3.97;3.57;;;;;;;8.21;100.00;99515.53;4995364;28;20169;-74
2021/05/04 02:21:29;;;;;;;4.30;3.50;;;;;;;8.26;100.00;99504.63;4978515;28;20294;-74
2021/05/04 02:23:57;;;;;;;5.33;3.33;;;;;;;8.33;99.54;99503.22;5010689;28;20181;-74
2021/05/04 02:26:25;;;;;;;3.50;3.20;;;;;;;8.25;100.00;99479.50;4994964;28;20239;-73
2021/05/04 02:28:53;;;;;;;4.00;3.67;;;;;;;8.23;100.00;99459.25;4996249;28;20227;-74
2021/05/04 02:31:23;;;;;;;4.10;3.70;;;;;;;8.39;97.92;99442.56;4996706;28;20234;-74
2021/05/04 02:33:51;;;;;;;4.00;3.60;;;;;;;8.32;99.81;99439.41;5011411;28;20187;-73
2021/05/04 02:36:17;;;;;;;3.93;3.57;;;;;;;8.32;99.31;99425.88;4979525;28;20882;-74
2021/05/04 02:38:42;;;;;;;4.13;3.30;;;;;;;8.43;95.19;99427.38;4996251;28;20247;-74
2021/05/04 02:41:10;;;;;;;4.00;3.37;;;;;;;8.36;96.93;99429.63;4995617;28;20229;-73
2021/05/04 02:43:36;;;;;;;3.70;3.40;;;;;;;8.48;96.99;99424.63;4978794;28;20647;-73
2021/05/04 02:46:02;;;;;;;3.63;3.20;;;;;;;8.37;96.80;99423.13;4995419;28;20228;-73
2021/05/04 02:48:28;;;;;;;4.27;3.33;;;;;;;8.44;96.56;99405.44;4996406;28;20250;-74
2021/05/04 02:50:57;;;;;;;3.70;3.40;;;;;;;8.69;94.77;99417.84;4999077;28;20239;-75
2021/05/04 02:53:22;;;;;;;5.17;3.43;;;;;;;8.68;94.95;99421.66;5017863;28;20189;-75
2021/05/04 02:55:53;;;;;;;5.13;3.67;;;;;;;8.50;95.56;99390.75;5021416;28;20229;-74
2021/05/04 02:58:18;;;;;;;7.67;3.50;;;;;;;8.55;96.54;99370.94;5004228;28;20181;-74
2021/05/04 03:00:46;;;;;;;4.00;3.60;;;;;;;8.69;94.70;99371.84;4984982;28;20231;-74
2021/05/04 03:03:12;;;;;;;3.47;3.17;;;;;;;8.70;94.77;99355.31;4981097;28;20219;-74
2021/05/04 03:05:37;;;;;;;5.80;3.20;;;;;;;8.70;93.53;99333.66;4997515;28;20702;-74
2021/05/04 03:08:03;;;;;;;3.40;3.10;;;;;;;8.67;95.28;99298.25;5012789;28;20526;-74
2021/05/04 03:10:29;;;;;;;4.90;3.90;;;;;;;8.96;92.72;99322.16;5011675;28;20324;-73
2021/05/04 03:12:55;;;;;;;3.80;3.30;;;;;;;8.94;92.86;99310.84;4995868;28;20651;-74
2021/05/04 03:15:21;;;;;;;3.40;3.10;;;;;;;9.04;91.41;99294.41;5014013;28;20193;-74
2021/05/04 03:17:46;;;;;;;3.23;2.97;;;;;;;8.96;91.57;99270.72;4996495;28;20209;-73
2021/05/04 03:20:14;;;;;;;3.30;2.90;;;;;;;9.18;90.52;99267.41;4980253;28;20851;-74
2021/05/04 03:22:42;;;;;;;4.67;3.20;;;;;;;9.09;89.31;99264.56;4999078;28;20173;-73
2021/05/04 03:25:12;;;;;;;3.80;3.30;;;;;;;9.17;89.81;99206.97;4987935;28;20191;-73
2021/05/04 03:27:43;;;;;;;2.90;2.60;;;;;;;9.47;82.61;99239.75;5019162;28;20874;-73
2021/05/04 03:30:09;;;;;;;3.60;2.70;;;;;;;9.55;83.81;99240.97;5003054;28;20196;-74
2021/05/04 03:32:40;;;;;;;3.50;3.00;;;;;;;9.55;81.82;99240.97;5033927;28;20173;-74
2021/05/04 03:35:08;;;;;;;3.27;2.53;;;;;;;9.57;83.46;99229.50;5003497;28;20180;-74
2021/05/04 03:37:33;;;;;;;2.80;2.50;;;;;;;9.51;82.81;99229.13;5019360;28;20212;-73
2021/05/04 03:39:59;;;;;;;2.97;2.77;;;;;;;9.47;83.41;99230.78;5025604;28;20203;-73
2021/05/04 03:42:24;;;;;;;3.10;2.80;;;;;;;9.60;79.86;99238.97;4997889;28;20657;-74
2021/05/04 03:44:52;;;;;;;4.53;2.93;;;;;;;9.50;80.99;99232.91;5015668;28;20181;-74
2021/05/04 03:47:20;;;;;;;3.03;2.73;;;;;;;9.66;78.02;99232.34;4998743;28;20312;-73
2021/05/04 03:49:45;;;;;;;3.33;2.87;;;;;;;9.56;78.52;99220.88;5032018;28;20679;-73
2021/05/04 03:52:13;;;;;;;4.17;2.93;;;;;;;9.72;78.53;99241.97;4998664;28;20225;-75
2021/05/04 03:54:39;;;;;;;4.03;2.70;;;;;;;9.65;75.98;99247.81;5015623;28;20699;-74
2021/05/04 03:57:07;;;;;;;2.80;2.50;;;;;;;9.92;73.06;99223.41;5014365;28;20237;-74
2021/05/04 03:59:32;;;;;;;4.67;2.70;;;;;;;9.85;74.22;99219.47;5015072;28;20546;-74
2021/05/04 04:01:58;;;;;;;3.83;2.70;;;;;;;9.83;75.02;99222.47;5013241;28;20251;-74
2021/05/04 04:04:24;;;;;;;2.60;2.30;;;;;;;9.92;73.50;99215.28;5000932;28;20246;-74
2021/05/04 04:09:23;;;;;;;4.40;2.90;;;;;;;10.11;71.57;99214.06;4951830;28;20313;-77
2021/05/04 04:11:48;;;;;;;3.47;2.50;;;;;;;10.26;73.44;99215.66;4951192;28;20226;-75
2021/05/04 04:14:14;;;;;;;3.07;2.37;;;;;;;10.08;75.30;99213.84;4945993;28;20724;-76
2021/05/04 04:16:44;;;;;;;3.17;2.37;;;;;;;10.06;74.69;99205.22;4968441;28;20232;-75
2021/05/04 04:19:13;;;;;;;3.17;2.30;;;;;;;10.11;75.63;99196.97;4995904;28;20181;-76
2021/05/04 04:21:41;;;;;;;3.40;2.37;;;;;;;10.15;76.23;99203.41;4979424;28;20255;-75
2021/05/04 04:24:07;;;;;;;2.80;2.50;;;;;;;10.29;74.29;99213.09;4962231;28;20184;-76
2021/05/04 04:26:32;;;;;;;2.50;2.30;;;;;;;10.15;75.15;99200.69;4962920;28;20313;-74
2021/05/04 04:29:00;;;;;;;3.67;2.30;;;;;;;10.23;74.82;99199.97;4963859;28;20725;-75
2021/05/04 04:31:28;;;;;;;3.70;2.50;;;;;;;10.17;77.25;99201.97;4947200;28;20235;-75
2021/05/04 04:33:57;;;;;;;2.60;2.40;;;;;;;10.16;80.22;99194.13;4978164;28;20199;-76
2021/05/04 04:36:25;;;;;;;4.00;2.80;;;;;;;10.09;81.76;99196.47;4995889;28;20244;-75
2021/05/04 04:38:53;;;;;;;3.20;2.50;;;;;;;9.89;87.25;99190.63;4964018;28;20188;-76
2021/05/04 04:41:22;;;;;;;4.03;2.57;;;;;;;9.72;92.30;99193.97;5013290;28;20229;-75
2021/05/04 04:43:50;;;;;;;3.73;2.47;;;;;;;9.62;92.48;99194.19;4980602;28;20288;-75
2021/05/04 04:46:16;;;;;;;3.17;2.87;;;;;;;9.51;94.96;99185.75;4995950;28;20233;-77
2021/05/04 04:48:43;;;;;;;3.03;2.80;;;;;;;9.49;97.42;99187.97;4996412;28;20694;-75
2021/05/04 04:51:09;;;;;;;4.33;2.67;;;;;;;9.37;100.00;99188.44;4963890;28;20225;-74
2021/05/04 04:53:39;;;;;;;3.60;2.77;;;;;;;9.28;100.00;99189.44;4980117;28;20250;-75
2021/05/04 04:56:07;;;;;;;2.97;2.77;;;;;;;9.21;100.00;99173.59;4963690;28;20233;-76
2021/05/04 04:58:33;;;;;;;3.87;3.50;;;;;;;9.31;100.00;99167.19;4963578;28;20264;-75
2021/05/04 05:01:01;;;;;;;2.93;2.73;;;;;;;9.23;100.00;99162.47;4962994;28;20212;-75
2021/05/04 05:03:27;;;;;;;3.40;3.10;;;;;;;9.21;100.00;99154.63;4995868;28;20267;-75
2021/05/04 05:05:52;;;;;;;2.87;2.67;;;;;;;9.06;100.00;99156.81;4962848;28;20748;-75
2021/05/04 05:08:23;;;;;;;4.33;3.07;;;;;;;9.16;100.00;99151.22;4979218;28;20205;-76
2021/05/04 05:10:49;;;;;;;5.37;3.30;;;;;;;9.09;100.00;99145.38;4979020;28;20789;-75
2021/05/04 05:13:17;;;;;;;3.40;3.10;;;;;;;9.22;100.00;99144.59;4994331;28;20200;-76
2021/05/04 05:15:42;;;;;;;3.40;3.00;;;;;;;9.20;100.00;99138.69;4946171;28;20275;-75
2021/05/04 05:18:08;;;;;;;4.00;3.00;;;;;;;9.28;100.00;99127.13;4968095;28;20185;-75
2021/05/04 05:20:34;;;;;;;3.40;3.07;;;;;;;9.07;100.00;99136.75;4940755;28;20233;-76
2021/05/04 05:23:00;;;;;;;3.30;3.00;;;;;;;9.06;100.00;99126.22;4956090;28;20190;-78
2021/05/04 05:25:25;;;;;;;4.00;3.60;;;;;;;9.07;100.00;99130.56;4971728;28;20233;-75
2021/05/04 05:27:51;;;;;;;3.33;3.10;;;;;;;9.01;100.00;99116.31;4956193;28;20218;-76
2021/05/04 05:30:17;;;;;;;3.57;3.27;;;;;;;9.20;100.00;99113.50;4955909;28;20182;-75
2021/05/04 05:32:42;;;;;;;3.87;3.27;;;;;;;9.04;100.00;99109.47;4971747;28;20249;-76
2021/05/04 05:35:10;;;;;;;3.57;3.27;;;;;;;8.89;100.00;99102.44;4974200;28;20196;-76
2021/05/04 05:37:36;;;;;;;3.87;3.57;;;;;;;8.83;100.00;99100.94;4959574;28;20260;-74
2021/05/04 05:40:02;;;;;;;4.33;3.23;;;;;;;8.94;100.00;99109.69;4943133;28;20193;-74
2021/05/04 05:42:28;;;;;;;4.13;3.53;;;;;;;8.91;100.00;99102.16;4942084;28;20221;-75
2021/05/04 05:44:53;;;;;;;4.73;3.47;;;;;;;8.94;100.00;99099.66;4958683;28;20182;-75
2021/05/04 05:47:19;;;;;;;4.33;3.73;;;;;;;8.96;100.00;99096.66;4958503;28;20225;-76
2021/05/04 05:49:48;;;;;;;4.00;3.60;;;;;;;8.94;100.00;99088.81;4975320;28;20790;-76
2021/05/04 05:52:14;;;;;;;4.93;3.70;;;;;;;8.95;100.00;99095.81;4942823;28;20261;-76
2021/05/04 05:54:42;;;;;;;4.13;3.73;;;;;;;8.83;100.00;99081.97;4959836;28;20347;-76
2021/05/04 05:57:10;;;;;;;4.37;3.33;;;;;;;8.87;100.00;99083.00;4975221;28;20234;-76
2021/05/04 05:59:43;;;;;;;3.70;3.40;;;;;;;8.79;100.00;99084.78;4975678;28;20248;-76
2021/05/04 06:02:11;;;;;;;4.30;3.37;;;;;;;8.70;100.00;99081.16;4924256;28;20245;-76
2021/05/04 06:04:37;;;;;;;4.37;3.43;;;;;;;8.87;100.00;99076.78;4956806;28;20186;-75
2021/05/04 06:07:03;;;;;;;3.90;3.37;;;;;;;8.99;100.00;99075.19;4923479;28;20230;-76
2021/05/04 06:09:33;;;;;;;4.13;3.03;;;;;;;8.81;100.00;99066.31;4923671;28;20218;-75
2021/05/04 06:12:01;;;;;;;3.70;3.40;;;;;;;8.97;100.00;99061.16;4922355;28;21019;-75
2021/05/04 06:14:31;;;;;;;4.73;3.60;;;;;;;9.05;100.00;99046.91;4924759;28;20218;-76
2021/05/04 06:16:57;;;;;;;3.80;3.40;;;;;;;9.08;100.00;99040.88;4923179;28;20240;-76
2021/05/04 06:19:27;;;;;;;4.50;3.57;;;;;;;9.31;100.00;99039.84;4994742;23;20636;-76
2021/05/04 06:21:58;;;;;;;5.17;3.50;;;;;;;9.13;100.00;99032.66;4994897;28;20217;-75
2021/05/04 06:24:24;;;;;;;4.83;3.20;;;;;;;9.16;100.00;99032.06;4976083;28;20181;-76
2021/05/04 06:26:52;;;;;;;3.50;3.17;;;;;;;9.15;100.00;99032.34;4995240;28;20233;-76
2021/05/04 06:29:17;;;;;;;2.80;2.60;;;;;;;8.98;100.00;99019.41;4971907;28;20580;-76
2021/05/04 06:31:44;;;;;;;3.27;2.47;;;;;;;8.92;100.00;99026.03;4987437;28;20232;-77
2021/05/04 06:34:12;;;;;;;3.40;2.50;;;;;;;8.97;100.00;99017.84;4973199;28;20185;-74
2021/05/04 06:36:38;;;;;;;14.37;10.57;;;;;;;9.09;100.00;99009.97;4989381;28;20761;-75
2021/05/04 06:39:03;;;;;;;6.53;4.60;;;;;;;9.23;100.00;98998.03;4949675;28;20186;-75
2021/05/04 06:41:35;;;;;;;3.33;2.30;;;;;;;9.09;100.00;99007.28;4970524;28;20226;-76
2021/05/04 06:44:05;;;;;;;3.63;2.47;;;;;;;9.15;100.00;99013.38;4971847;28;20198;-75
2021/05/04 06:46:32;;;;;;;2.83;2.63;;;;;;;9.03;100.00;99003.06;4971394;28;20234;-75
2021/05/04 06:49:00;;;;;;;2.77;2.27;;;;;;;9.19;100.00;98993.50;4972690;28;20235;-76
2021/05/04 06:51:28;;;;;;;2.73;2.30;;;;;;;9.27;100.00;98996.31;4973348;28;20218;-75
2021/05/04 06:54:01;;;;;;;2.50;2.30;;;;;;;9.28;100.00;98983.56;4990400;28;20328;-76
2021/05/04 06:56:26;;;;;;;3.93;2.63;;;;;;;9.52;100.00;98992.22;4986557;28;20224;-75
2021/05/04 06:58:54;;;;;;;4.03;2.57;;;;;;;9.44;100.00;98982.13;4977547;28;20199;-75
2021/05/04 07:01:20;;;;;;;2.50;2.20;;;;;;;9.33;100.00;98981.53;5010175;28;20300;-74
2021/05/04 07:03:48;;;;;;;3.73;2.10;;;;;;;9.62;100.00;98966.50;4977544;28;20179;-76
2021/05/04 07:06:14;;;;;;;3.50;2.30;;;;;;;9.39;100.00;98971.41;5009518;28;20235;-74
2021/05/04 07:08:43;;;;;;;3.70;2.40;;;;;;;9.38;100.00;98961.69;5009802;28;20375;-75
2021/05/04 07:11:10;;;;;;;23.23;18.67;;;;;;;9.40;100.00;98964.88;4993152;28;20235;-75
2021/05/04 07:13:42;;;;;;;5.03;3.50;;;;;;;9.60;100.00;98959.78;4977630;28;20173;-77
2021/05/04 07:16:10;;;;;;;2.43;1.80;;;;;;;9.57;100.00;98953.06;5012043;28;20658;-77
2021/05/04 07:18:36;;;;;;;2.30;1.93;;;;;;;9.55;100.00;98951.78;4994212;28;20242;-76
2021/05/04 07:21:07;;;;;;;2.20;2.00;;;;;;;9.64;100.00;98948.03;4995800;28;20236;-76
2021/05/04 07:23:34;;;;;;;2.43;2.00;;;;;;;9.57;100.00;98941.44;4995454;28;20267;-77
2021/05/04 07:26:00;;;;;;;2.93;2.00;;;;;;;9.57;100.00;98929.78;4985106;28;20216;-77
2021/05/04 07:28:28;;;;;;;2.20;2.00;;;;;;;9.45;100.00;98937.66;5017801;28;20213;-78
2021/05/04 07:30:56;;;;;;;1.80;1.70;;;;;;;9.40;100.00;98929.66;4983405;28;20228;-75
2021/05/04 07:33:21;;;;;;;5.03;2.20;;;;;;;9.57;100.00;98936.00;4982103;28;20659;-76
2021/05/04 07:35:51;;;;;;;4.90;4.13;;;;;;;9.67;100.00;98922.22;4992522;28;20236;-77
2021/05/04 07:38:19;;;;;;;2.60;2.30;;;;;;;9.72;100.00;98912.03;4994593;28;20207;-76
2021/05/04 07:40:44;;;;;;;2.60;2.03;;;;;;;9.94;100.00;98917.47;4993365;28;20233;-76
2021/05/04 07:43:10;;;;;;;1.87;1.77;;;;;;;9.98;100.00;98910.31;4993491;28;20197;-76
2021/05/04 07:45:36;;;;;;;1.80;1.70;;;;;;;9.83;100.00;98902.53;4976799;28;20227;-77
2021/05/04 07:48:03;;;;;;;1.87;1.70;;;;;;;9.85;100.00;98899.53;4994832;28;20287;-77
2021/05/04 07:50:29;;;;;;;2.00;1.80;;;;;;;9.96;100.00;98890.03;4995822;28;20244;-77
2021/05/04 07:52:55;;;;;;;2.10;1.57;;;;;;;9.91;100.00;98893.72;4978124;28;20190;-75
2021/05/04 07:55:23;;;;;;;1.93;1.70;;;;;;;10.10;100.00;98902.41;4976821;28;20201;-76
2021/05/04 07:57:53;;;;;;;2.23;1.70;;;;;;;10.01;100.00;98896.13;4978476;28;20300;-77
2021/05/04 08:00:21;;;;;;;1.97;1.87;;;;;;;10.07;100.00;98897.59;4994354;28;20288;-77
2021/05/04 08:02:56;;;;;;;2.03;1.67;;;;;;;9.96;100.00;98888.13;5009921;28;20186;-75
2021/05/04 08:05:21;;;;;;;2.67;1.53;;;;;;;10.15;100.00;98894.16;5010676;28;20401;-75
2021/05/04 08:07:47;;;;;;;1.87;1.60;;;;;;;10.14;100.00;98892.53;4980094;28;20247;-77
2021/05/04 08:10:18;;;;;;;2.17;1.50;;;;;;;10.00;100.00;98876.38;5012550;28;20185;-76
2021/05/04 08:12:44;;;;;;;2.03;1.27;;;;;;;9.89;100.00;98866.06;4980695;28;20572;-76
2021/05/04 08:15:18;;;;;;;2.73;1.47;;;;;;;9.87;100.00;98887.28;4998433;28;20212;-77
2021/05/04 08:17:52;;;;;;;2.40;1.67;;;;;;;9.97;100.00;98876.19;4997770;28;20691;-81
2021/05/04 08:20:18;;;;;;;1.60;1.40;;;;;;;9.90;100.00;98866.88;4980935;28;20197;-76
2021/05/04 08:22:46;;;;;;;1.70;1.33;;;;;;;9.87;100.00;98868.28;4996017;28;20185;-79
2021/05/04 08:25:12;;;;;;;1.43;1.33;;;;;;;9.96;100.00;98869.16;4984958;28;20223;-79
2021/05/04 08:27:40;;;;;;;2.97;1.63;;;;;;;10.09;100.00;98857.41;4987594;28;20272;-80
2021/05/04 08:30:06;;;;;;;1.50;1.40;;;;;;;9.99;100.00;98863.09;5002368;28;20183;-79
2021/05/04 08:32:36;;;;;;;2.10;1.27;;;;;;;9.90;100.00;98864.94;4993631;28;20295;-76
2021/05/04 08:35:01;;;;;;;1.50;1.40;;;;;;;9.98;100.00;98871.56;4982302;28;20324;-78
2021/05/04 08:37:27;;;;;;;1.90;1.60;;;;;;;9.91;100.00;98868.44;4995791;28;20718;-78
2021/05/04 08:39:53;;;;;;;1.90;1.70;;;;;;;9.87;100.00;98881.84;5011880;28;20212;-78
2021/05/04 08:42:21;;;;;;;1.40;1.20;;;;;;;9.95;100.00;98873.00;5011693;28;20216;-79
2021/05/04 08:44:50;;;;;;;1.47;1.37;;;;;;;10.04;100.00;98869.19;4981411;28;20329;-78
2021/05/04 08:47:16;;;;;;;2.73;1.93;;;;;;;9.90;100.00;98858.72;4978990;28;20224;-76
2021/05/04 08:49:42;;;;;;;1.60;1.50;;;;;;;9.96;100.00;98857.50;5014561;28;20220;-77
2021/05/04 08:52:11;;;;;;;1.30;1.20;;;;;;;10.01;100.00;98848.13;4995759;28;20220;-78
2021/05/04 08:54:38;;;;;;;1.73;1.47;;;;;;;10.07;100.00;98854.19;4980014;28;20174;-77
2021/05/04 08:57:04;;;;;;;2.20;1.40;;;;;;;10.17;100.00;98851.22;4979646;28;20220;-81
2021/05/04 08:59:32;;;;;;;1.43;1.30;;;;;;;10.04;100.00;98854.84;5015046;28;20517;-78
2021/05/04 09:02:00;;;;;;;1.57;1.30;;;;;;;10.00;100.00;98853.88;4977425;28;20259;-77
2021/05/04 09:04:38;;;;;;;1.37;1.27;;;;;;;10.00;100.00;98853.88;5014486;28;20188;-79
2021/05/04 09:07:17;;;;;;;2.10;1.33;;;;;;;9.89;100.00;98855.22;4997007;28;20216;-79
2021/05/04 09:10:21;;;;;;;1.50;1.40;;;;;;;9.95;100.00;98845.06;5016682;28;20213;-78
2021/05/04 09:12:54;;;;;;;1.20;1.10;;;;;;;9.86;100.00;98853.13;4995463;28;20221;-78
2021/05/04 09:21:09;;;;;;;107.93;79.93;;;;;;;9.95;100.00;98834.22;5013155;28;20887;-77
2021/05/04 09:23:44;;;;;;;1.80;1.53;;;;;;;9.95;100.00;98826.88;4994927;28;20212;-77
2021/05/04 09:26:20;;;;;;;1.30;1.20;;;;;;;9.96;100.00;98828.47;4997417;28;20216;-79
2021/05/04 09:28:52;;;;;;;1.53;1.40;;;;;;;10.15;100.00;98826.34;4979117;28;20223;-76
2021/05/04 09:31:30;;;;;;;2.87;1.20;;;;;;;10.16;100.00;98819.78;4991567;28;20233;-78
2021/05/04 09:34:06;;;;;;;3.03;1.30;;;;;;;10.13;100.00;98815.78;5008241;28;20927;-77
2021/05/04 09:36:51;;;;;;;2.30;1.50;;;;;;;10.08;100.00;98812.41;4985988;28;20994;-77
2021/05/04 09:39:28;;;;;;;2.47;1.60;;;;;;;10.29;100.00;98810.72;5010837;28;20195;-76
2021/05/04 09:41:58;;;;;;;2.53;1.40;;;;;;;10.28;100.00;98809.94;5029419;28;20228;-75
2021/05/04 09:44:36;;;;;;;1.40;1.30;;;;;;;10.50;100.00;98799.75;4998211;28;20255;-75
2021/05/04 09:47:02;;;;;;;1.40;1.30;;;;;;;10.48;100.00;98785.72;5031280;28;20304;-77
2021/05/04 09:49:34;;;;;;;1.70;1.60;;;;;;;10.47;100.00;98789.53;5025234;28;20204;-75
2021/05/04 09:52:22;;;;;;;1.73;1.20;;;;;;;10.50;100.00;98783.47;4990316;28;20220;-75
2021/05/04 09:54:50;;;;;;;3.00;1.40;;;;;;;10.63;100.00;98777.09;5024356;28;20195;-77
2021/05/04 09:57:37;;;;;;;2.47;1.47;;;;;;;10.64;100.00;98773.28;4988754;28;20227;-76
2021/05/04 10:00:16;;;;;;;2.07;1.30;;;;;;;11.02;100.00;98777.75;4996596;28;20322;-75
2021/05/04 10:02:55;;;;;;;1.93;1.10;;;;;;;10.81;100.00;98773.28;4995728;28;20224;-75
2021/05/04 10:05:23;;;;;;;1.73;1.30;;;;;;;10.67;100.00;98780.78;4981496;28;20184;-75
2021/05/04 10:07:51;;;;;;;15.47;12.93;;;;;;;10.80;100.00;98777.13;4978046;28;20200;-75
2021/05/04 10:10:17;;;;;;;16.93;13.87;;;;;;;10.74;100.00;98766.75;4993464;28;20181;-80
2021/05/04 10:12:46;;;;;;;2.07;1.63;;;;;;;10.81;100.00;98773.28;4976990;28;20188;-77
2021/05/04 10:15:18;;;;;;;2.67;1.57;;;;;;;10.79;100.00;98770.09;4978795;28;20610;-76
2021/05/04 10:17:48;;;;;;;8.43;1.93;;;;;;;11.03;100.00;98770.41;4989905;28;20333;-77
2021/05/04 10:20:17;;;;;;;1.20;1.20;;;;;;;11.18;100.00;98768.00;4976162;28;20198;-79
2021/05/04 10:22:44;;;;;;;1.80;1.63;;;;;;;10.95;100.00;98782.06;4983708;28;20180;-76
2021/05/04 10:25:15;;;;;;;1.60;1.50;;;;;;;11.01;100.00;98780.81;4989670;28;20712;-74
2021/05/04 10:27:42;;;;;;;3.47;1.20;;;;;;;11.18;100.00;98770.72;4970268;28;20206;-75
2021/05/04 10:30:10;;;;;;;2.23;1.20;;;;;;;11.27;100.00;98763.34;4963930;28;20652;-75
2021/05/04 10:32:51;;;;;;;2.53;1.20;;;;;;;11.38;100.00;98773.56;5007235;28;20200;-75
2021/05/04 10:35:45;;;;;;;3.20;1.23;;;;;;;10.94;100.00;98761.47;4992500;28;20196;-75
2021/05/04 10:38:16;;;;;;;1.40;0.90;;;;;;;11.01;100.00;98768.00;4994058;28;20200;-75
2021/05/04 10:40:57;;;;;;;1.93;1.20;;;;;;;10.89;100.00;98770.56;4986583;28;20226;-73
2021/05/04 10:43:23;;;;;;;2.10;1.07;;;;;;;10.72;100.00;98764.34;4995714;28;20973;-74
2021/05/04 10:45:55;;;;;;;1.73;1.50;;;;;;;10.89;100.00;98780.63;5006646;28;20670;-74
2021/05/04 10:48:40;;;;;;;1.20;0.80;;;;;;;10.93;100.00;98766.13;5002084;28;20224;-73
2021/05/04 10:51:12;;;;;;;2.23;1.00;;;;;;;11.06;100.00;98777.91;5003865;28;20221;-76
2021/05/04 10:53:56;;;;;;;1.53;1.00;;;;;;;11.04;100.00;98777.44;4972727;28;20221;-77
2021/05/04 10:56:46;;;;;;;1.97;0.90;;;;;;;10.88;100.00;98779.06;4989240;28;20241;-77
2021/05/04 10:59:13;;;;;;;1.37;1.20;;;;;;;10.63;100.00;98776.31;4989733;28;20200;-76
2021/05/04 11:02:12;;;;;;;1.13;1.00;;;;;;;10.52;100.00;98773.09;4998601;28;20802;-76
2021/05/04 11:04:41;;;;;;;1.80;1.23;;;;;;;10.57;100.00;98751.25;5036589;28;20678;-77
2021/05/04 11:07:07;;;;;;;1.17;1.03;;;;;;;10.82;100.00;98750.44;4997208;28;20225;-76
2021/05/04 11:09:39;;;;;;;1.20;1.10;;;;;;;11.27;100.00;98741.59;4982339;28;20249;-75
2021/05/04 11:12:09;;;;;;;2.60;1.50;;;;;;;11.96;100.00;98747.31;4976946;28;20264;-77
2021/05/04 11:14:39;;;;;;;1.30;1.13;;;;;;;11.82;100.00;98740.50;4975070;28;20181;-77
2021/05/04 11:17:10;;;;;;;1.43;1.23;;;;;;;11.77;100.00;98743.38;4973123;28;20241;-75
2021/05/04 11:19:40;;;;;;;2.53;1.30;;;;;;;11.91;100.00;98743.97;4996747;28;20185;-77
2021/05/04 11:22:16;;;;;;;1.43;1.13;;;;;;;11.82;100.00;98737.78;4991762;28;20229;-75
2021/05/04 11:24:43;;;;;;;1.40;1.30;;;;;;;11.52;100.00;98749.72;5009464;28;20192;-76
2021/05/04 11:27:12;;;;;;;1.93;1.20;;;;;;;11.58;100.00;98746.50;4992125;28;20601;-75
2021/05/04 11:29:41;;;;;;;2.23;1.13;;;;;;;11.38;100.00;98735.50;4992430;28;20239;-76
2021/05/04 11:32:16;;;;;;;1.50;1.20;;;;;;;11.22;100.00;98728.97;5007794;28;20639;-76
2021/05/04 11:34:54;;;;;;;2.33;1.20;;;;;;;11.92;100.00;98714.53;5009507;28;20216;-75
2021/05/04 11:37:20;;;;;;;2.40;1.17;;;;;;;12.40;100.00;98709.44;4992406;28;20294;-77
2021/05/04 11:39:55;;;;;;;1.17;0.90;;;;;;;12.64;100.00;98693.22;4992403;28;20835;-76
2021/05/04 11:42:29;;;;;;;1.60;1.00;;;;;;;12.63;100.00;98680.72;4989861;28;20217;-76
2021/05/04 11:45:15;;;;;;;1.20;0.80;;;;;;;12.06;96.51;98687.84;4996746;28;20184;-75
2021/05/04 11:47:50;;;;;;;1.93;0.70;;;;;;;12.47;95.63;98704.22;5012801;28;20232;-77